Time;durP1;ratioP1;P1;durP2;ratioP2;P2;SDS_P1;SDS_P2;PMS_P1;PMS_P2;Temp;Humidity;BMP_temperature;BMP_pressure;BME280_temperature;BME280_humidity;BME280_pressure;Samples;Min_cycle;Max_cycle;Signal;HPM_P1;HPM_P2
2023/05/18 00:00:09;;;;;;;3.85;1.73;;;;;;;19.06;66.64;100249.00;5072405;28;20052;-63
2023/05/18 00:02:41;;;;;;;2.38;1.30;;;;;;;19.06;66.86;100249.00;5072516;28;20044;-64
2023/05/18 00:05:10;;;;;;;3.05;1.27;;;;;;;19.05;66.71;100252.72;5072339;28;20537;-64
2023/05/18 00:07:41;;;;;;;2.42;1.15;;;;;;;19.05;66.73;100252.72;5072462;28;20052;-63
2023/05/18 00:10:12;;;;;;;3.78;1.35;;;;;;;19.04;66.55;100251.00;5072287;28;20603;-63
2023/05/18 00:12:40;;;;;;;2.65;1.30;;;;;;;19.04;66.75;100259.13;5071904;28;20071;-63
2023/05/18 00:15:10;;;;;;;3.75;1.60;;;;;;;19.03;66.79;100255.56;5072458;28;20456;-63
2023/05/18 00:17:41;;;;;;;2.78;1.23;;;;;;;19.03;66.81;100249.31;5072021;28;20056;-63
2023/05/18 00:20:11;;;;;;;3.33;1.45;;;;;;;19.02;66.66;100253.00;5072194;28;20076;-63
2023/05/18 00:22:41;;;;;;;2.97;1.70;;;;;;;19.01;66.79;100251.28;5072001;28;20383;-64
2023/05/18 00:25:10;;;;;;;2.75;1.40;;;;;;;19.01;66.82;100256.69;5071931;28;20095;-63
2023/05/18 00:27:39;;;;;;;3.17;1.30;;;;;;;18.99;66.58;100259.53;5071867;28;20040;-63
2023/05/18 00:30:10;;;;;;;2.47;1.40;;;;;;;18.99;66.72;100262.25;5072046;28;20040;-63
2023/05/18 00:32:38;;;;;;;2.40;1.33;;;;;;;19.00;66.84;100268.50;5071652;28;20639;-64
2023/05/18 00:35:07;;;;;;;2.53;1.27;;;;;;;18.99;66.44;100264.09;5071859;28;20505;-63
2023/05/18 00:37:36;;;;;;;1.77;1.30;;;;;;;18.98;66.64;100268.66;5071743;28;20086;-63
2023/05/18 00:40:06;;;;;;;5.13;1.45;;;;;;;18.98;66.77;100262.41;5071668;28;20132;-64
2023/05/18 00:42:34;;;;;;;4.03;1.20;;;;;;;18.98;66.48;100271.34;5071911;28;20448;-63
2023/05/18 00:45:03;;;;;;;2.42;1.40;;;;;;;18.97;66.60;100266.09;5071847;28;20079;-63
2023/05/18 00:47:32;;;;;;;2.17;1.23;;;;;;;18.96;66.50;100262.56;5070365;28;20083;-64
2023/05/18 00:50:00;;;;;;;3.05;1.48;;;;;;;18.95;66.41;100266.25;5071703;28;20501;-64
2023/05/18 00:52:31;;;;;;;2.70;1.33;;;;;;;18.95;66.53;100263.56;5071486;28;20067;-64
2023/05/18 00:55:01;;;;;;;3.28;1.40;;;;;;;18.95;66.65;100270.81;5071854;28;20444;-63
2023/05/18 00:57:29;;;;;;;2.65;1.38;;;;;;;18.94;66.44;100271.81;5070185;28;20045;-63
2023/05/18 00:59:58;;;;;;;2.58;1.40;;;;;;;18.94;66.39;100272.66;5071167;28;20048;-63
2023/05/18 01:02:29;;;;;;;2.67;1.40;;;;;;;18.94;66.60;100266.41;5071506;28;20407;-63
2023/05/18 01:04:59;;;;;;;2.95;1.40;;;;;;;18.93;66.75;100270.09;5071460;28;20044;-63
2023/05/18 01:07:27;;;;;;;3.13;1.50;;;;;;;18.93;66.78;100275.50;5071610;28;20158;-63
2023/05/18 01:09:56;;;;;;;1.85;1.30;;;;;;;18.92;66.57;100273.81;5071746;28;20045;-63
2023/05/18 01:12:32;;;;;;;2.40;1.23;;;;;;;18.92;66.69;100276.50;5071416;28;20648;-63
2023/05/18 01:15:07;;;;;;;2.25;1.33;;;;;;;18.91;66.77;100277.47;5071393;28;20106;-63
2023/05/18 01:17:46;;;;;;;3.17;1.48;;;;;;;18.91;66.78;100277.47;5071189;28;20079;-63
2023/05/18 01:20:32;;;;;;;1.65;1.08;;;;;;;18.91;66.81;100280.19;5071649;28;20041;-62
2023/05/18 01:23:35;;;;;;;2.00;1.30;;;;;;;18.90;66.58;100286.59;5071722;28;20049;-62
2023/05/18 01:26:14;;;;;;;3.40;1.20;;;;;;;18.90;66.54;100281.19;5071301;28;20127;-62
2023/05/18 01:28:45;;;;;;;2.40;1.20;;;;;;;18.88;66.75;100293.00;5071483;28;20117;-62
2023/05/18 01:31:15;;;;;;;2.15;1.30;;;;;;;18.87;66.77;100291.28;5071260;28;20075;-62
2023/05/18 01:33:47;;;;;;;2.88;1.20;;;;;;;18.87;66.43;100285.88;5071122;28;20083;-62
2023/05/18 01:36:15;;;;;;;1.83;1.15;;;;;;;18.87;66.58;100294.00;5071312;28;20131;-62
2023/05/18 01:38:44;;;;;;;2.33;1.35;;;;;;;18.86;66.51;100292.28;5071332;28;20048;-62
2023/05/18 01:41:20;;;;;;;2.10;1.17;;;;;;;18.86;66.62;100297.69;5071301;28;20456;-62
2023/05/18 01:43:55;;;;;;;1.52;1.02;;;;;;;18.85;66.38;100296.00;5071120;28;20098;-62
2023/05/18 01:46:34;;;;;;;3.55;1.30;;;;;;;18.85;66.76;100295.16;5070962;28;20083;-61
2023/05/18 01:49:11;;;;;;;2.80;1.50;;;;;;;18.85;66.59;100295.16;5070914;28;20044;-62
2023/05/18 01:51:45;;;;;;;2.97;1.13;;;;;;;18.83;66.34;100298.00;5071181;28;20094;-63
2023/05/18 01:54:18;;;;;;;2.30;1.45;;;;;;;18.83;66.33;100298.00;5070926;28;20052;-64
2023/05/18 01:56:54;;;;;;;2.22;1.15;;;;;;;18.83;66.48;100298.00;5069768;28;20074;-64
2023/05/18 01:59:23;;;;;;;1.95;1.23;;;;;;;18.83;66.48;100297.16;5070943;28;20098;-63
2023/05/18 02:01:58;;;;;;;2.45;1.30;;;;;;;18.81;66.34;100299.97;5071198;28;20048;-63
2023/05/18 02:04:27;;;;;;;1.58;1.10;;;;;;;18.81;66.31;100305.38;5071072;28;20090;-63
2023/05/18 02:06:56;;;;;;;2.08;1.40;;;;;;;18.81;66.37;100309.94;5071054;28;20040;-63
2023/05/18 02:09:24;;;;;;;2.40;1.17;;;;;;;18.80;66.35;100309.06;5071025;28;20117;-63
2023/05/18 02:11:53;;;;;;;2.63;1.30;;;;;;;18.80;66.64;100313.63;5073276;28;20053;-63
2023/05/18 02:14:23;;;;;;;2.17;1.25;;;;;;;18.80;66.35;100313.63;5074763;28;20052;-63
2023/05/18 02:16:51;;;;;;;2.17;1.13;;;;;;;18.79;66.68;100312.78;5074403;28;20075;-63
2023/05/18 02:19:20;;;;;;;2.25;1.38;;;;;;;18.79;66.83;100315.47;5074464;28;20048;-63
2023/05/18 02:21:48;;;;;;;2.42;1.10;;;;;;;18.78;66.63;100315.63;5073309;28;20131;-64
2023/05/18 02:24:17;;;;;;;1.77;1.08;;;;;;;18.78;66.30;100318.31;5074242;28;20040;-63
2023/05/18 02:26:48;;;;;;;2.85;1.35;;;;;;;18.78;66.24;100327.28;5074531;28;20048;-63
2023/05/18 02:29:18;;;;;;;2.33;1.38;;;;;;;18.78;66.40;100331.84;5074464;28;20481;-63
2023/05/18 02:31:46;;;;;;;2.00;1.30;;;;;;;18.75;66.41;100327.59;5074293;28;20080;-63
2023/05/18 02:34:15;;;;;;;2.47;1.17;;;;;;;18.76;66.54;100329.28;5074161;28;20614;-63
2023/05/18 02:36:44;;;;;;;2.45;1.30;;;;;;;18.75;66.36;100332.97;5072996;28;20094;-63
2023/05/18 02:39:13;;;;;;;3.13;1.50;;;;;;;18.75;66.34;100332.13;5073988;28;20049;-63
2023/05/18 02:41:41;;;;;;;2.78;1.10;;;;;;;18.74;66.34;100325.88;5073137;28;20052;-63
2023/05/18 02:44:12;;;;;;;2.30;1.20;;;;;;;18.75;66.54;100332.13;5073950;28;20049;-63
2023/05/18 02:46:41;;;;;;;2.25;1.30;;;;;;;18.74;66.33;100339.38;5073903;28;20427;-63
2023/05/18 02:49:09;;;;;;;2.97;1.30;;;;;;;18.74;66.54;100347.50;5073821;28;20498;-64
2023/05/18 02:51:38;;;;;;;3.08;1.15;;;;;;;18.73;66.43;100334.97;5073882;28;20052;-62
2023/05/18 02:54:06;;;;;;;2.25;1.30;;;;;;;18.72;66.56;100333.28;5073768;28;20478;-63
2023/05/18 02:56:34;;;;;;;1.98;1.20;;;;;;;18.72;66.19;100333.28;5073804;28;20551;-63
2023/05/18 02:59:02;;;;;;;3.00;1.35;;;;;;;18.72;66.37;100327.88;5073917;28;20410;-63
2023/05/18 03:01:33;;;;;;;2.28;1.40;;;;;;;18.72;66.33;100327.88;5073666;28;20052;-63
2023/05/18 03:04:03;;;;;;;4.30;2.00;;;;;;;18.71;66.39;100326.16;5073549;28;20114;-63
2023/05/18 03:06:35;;;;;;;3.45;1.92;;;;;;;18.70;66.48;100329.84;5073863;28;20456;-63
2023/05/18 03:09:03;;;;;;;3.53;1.92;;;;;;;18.70;66.31;100332.53;5073533;28;20076;-63
2023/05/18 03:11:31;;;;;;;2.78;1.60;;;;;;;18.70;66.54;100329.84;5073501;28;20053;-63
2023/05/18 03:14:03;;;;;;;1.92;1.15;;;;;;;18.70;66.25;100340.66;5073407;28;20135;-63
2023/05/18 03:16:31;;;;;;;2.03;1.30;;;;;;;18.69;66.46;100336.25;5073283;28;20045;-63
2023/05/18 03:19:04;;;;;;;3.03;1.40;;;;;;;18.68;66.24;100337.25;5072418;28;20087;-63
2023/05/18 03:21:34;;;;;;;4.40;1.40;;;;;;;18.68;66.24;100337.25;5072930;28;20044;-63
2023/05/18 03:24:05;;;;;;;2.08;1.20;;;;;;;18.69;66.55;100338.09;5073369;28;20451;-63
2023/05/18 03:26:37;;;;;;;2.67;1.50;;;;;;;18.68;66.34;100342.66;5073314;28;20040;-63
2023/05/18 03:29:06;;;;;;;3.80;1.48;;;;;;;18.68;66.35;100341.78;5073103;28;20429;-63
2023/05/18 03:31:34;;;;;;;2.42;1.42;;;;;;;18.66;66.49;100344.66;5072996;28;20045;-63
2023/05/18 03:34:03;;;;;;;2.22;1.38;;;;;;;18.67;66.42;100345.50;5072949;28;20052;-63
2023/05/18 03:36:32;;;;;;;2.88;1.70;;;;;;;18.67;66.62;100342.78;5073129;28;20044;-63
2023/05/18 03:39:00;;;;;;;2.78;1.58;;;;;;;18.66;66.53;100350.03;5072947;28;20082;-63
2023/05/18 03:41:28;;;;;;;2.88;1.45;;;;;;;18.66;66.37;100351.91;5072972;28;20501;-63
2023/05/18 03:44:00;;;;;;;1.92;1.30;;;;;;;18.66;66.73;100358.16;5072823;28;20145;-63
2023/05/18 03:46:31;;;;;;;2.65;1.30;;;;;;;18.65;66.46;100356.44;5073140;28;20080;-63
2023/05/18 03:48:59;;;;;;;2.45;1.45;;;;;;;18.65;66.25;100359.16;5072960;28;20040;-63
2023/05/18 03:51:29;;;;;;;2.22;1.20;;;;;;;18.65;66.27;100363.69;5072885;28;20052;-63
2023/05/18 03:54:04;;;;;;;1.80;1.08;;;;;;;18.65;66.45;100361.84;5072563;28;20053;-63
2023/05/18 03:56:34;;;;;;;2.13;1.10;;;;;;;18.64;66.73;100361.97;5072797;28;20131;-63
2023/05/18 03:59:03;;;;;;;1.75;1.10;;;;;;;18.64;66.20;100362.81;5072664;28;20076;-63
2023/05/18 04:01:32;;;;;;;1.88;1.00;;;;;;;18.63;66.44;100363.81;5072496;28;20045;-63
2023/05/18 04:04:00;;;;;;;2.42;1.13;;;;;;;18.64;66.58;100367.38;5072534;28;20056;-63
2023/05/18 04:06:30;;;;;;;2.17;1.20;;;;;;;18.62;66.52;100364.78;5072382;28;20094;-63
2023/05/18 04:09:02;;;;;;;1.95;1.23;;;;;;;18.62;66.48;100369.34;5072266;28;20413;-63
2023/05/18 04:11:34;;;;;;;2.75;1.25;;;;;;;18.62;66.56;100370.19;5072285;28;20052;-63
2023/05/18 04:14:02;;;;;;;2.67;1.20;;;;;;;18.62;66.35;100370.19;5072389;28;20438;-63
2023/05/18 04:16:30;;;;;;;1.90;1.20;;;;;;;18.61;66.33;100379.28;5072038;28;20056;-62
2023/05/18 04:18:59;;;;;;;3.40;1.15;;;;;;;18.61;66.20;100373.88;5072293;28;20045;-63
2023/05/18 04:21:35;;;;;;;1.73;1.15;;;;;;;18.61;66.31;100382.00;5072510;28;20365;-63
2023/05/18 04:24:05;;;;;;;1.80;1.10;;;;;;;18.60;66.66;100382.97;5072147;28;20049;-63
2023/05/18 04:26:35;;;;;;;2.55;1.20;;;;;;;18.60;66.49;100385.69;5072056;28;20066;-63
2023/05/18 04:29:06;;;;;;;2.25;1.10;;;;;;;18.61;66.54;100387.38;5071960;28;20057;-62
2023/05/18 04:31:35;;;;;;;1.65;1.00;;;;;;;18.59;66.25;100390.25;5071897;28;20047;-62
2023/05/18 04:34:03;;;;;;;2.67;1.00;;;;;;;18.59;66.15;100392.94;5070868;28;20044;-62
2023/05/18 04:36:33;;;;;;;2.22;1.13;;;;;;;18.60;66.58;100391.09;5071780;28;20101;-63
2023/05/18 04:39:06;;;;;;;1.98;1.00;;;;;;;18.59;66.49;100392.09;5071800;28;20045;-63
2023/05/18 04:41:35;;;;;;;3.28;1.10;;;;;;;18.59;66.17;100400.19;5071782;28;20045;-61
2023/05/18 04:44:03;;;;;;;1.70;1.10;;;;;;;18.58;66.20;100390.38;5071560;28;20052;-61
2023/05/18 04:46:33;;;;;;;1.42;0.90;;;;;;;18.58;66.10;100395.78;5071659;28;20094;-64
2023/05/18 04:49:02;;;;;;;1.70;0.90;;;;;;;18.58;66.28;100395.78;5071604;28;20044;-62
2023/05/18 04:51:33;;;;;;;2.33;1.20;;;;;;;18.58;66.45;100395.78;5071732;28;20040;-62
2023/05/18 04:54:02;;;;;;;1.73;1.10;;;;;;;18.58;66.55;100393.09;5071501;28;20056;-62
2023/05/18 04:56:31;;;;;;;1.67;1.10;;;;;;;18.57;66.53;100394.09;5071365;28;20048;-61
2023/05/18 04:59:00;;;;;;;1.10;0.98;;;;;;;18.58;66.20;100406.59;5071121;28;20102;-63
2023/05/18 05:01:28;;;;;;;2.38;1.40;;;;;;;18.57;66.17;100396.78;5070406;28;20119;-64
2023/05/18 05:03:58;;;;;;;2.97;1.50;;;;;;;18.57;66.35;100399.47;5071477;28;20044;-64
2023/05/18 05:06:26;;;;;;;2.22;1.20;;;;;;;18.56;66.24;100403.19;5071461;28;20059;-63
2023/05/18 05:08:56;;;;;;;2.83;1.35;;;;;;;18.57;66.37;100402.19;5071147;28;20122;-63
2023/05/18 05:11:24;;;;;;;1.83;1.10;;;;;;;18.57;66.25;100404.88;5069727;28;20495;-63
2023/05/18 05:13:53;;;;;;;1.85;1.20;;;;;;;18.55;66.44;100402.34;5071273;28;20111;-63
2023/05/18 05:16:21;;;;;;;2.30;1.33;;;;;;;18.56;66.03;100409.44;5071039;28;20545;-64
2023/05/18 05:18:51;;;;;;;2.15;1.20;;;;;;;18.55;66.35;100413.13;5070892;28;20048;-63
2023/05/18 05:21:20;;;;;;;2.58;1.10;;;;;;;18.55;66.36;100409.59;5070889;28;20068;-65
2023/05/18 05:23:48;;;;;;;1.95;1.25;;;;;;;18.56;66.18;100414.00;5070750;28;20056;-64
2023/05/18 05:26:18;;;;;;;2.42;1.30;;;;;;;18.55;66.57;100417.69;5069644;28;20668;-63
2023/05/18 05:28:46;;;;;;;2.13;1.08;;;;;;;18.56;66.24;100414.00;5070347;28;20109;-63
2023/05/18 05:31:14;;;;;;;2.33;1.40;;;;;;;18.55;66.40;100415.00;5070434;28;20047;-62
2023/05/18 05:33:44;;;;;;;2.10;1.35;;;;;;;18.56;66.74;100419.38;5069882;28;20044;-61
2023/05/18 05:36:15;;;;;;;1.95;1.33;;;;;;;18.55;66.94;100417.69;5067351;28;20135;-62
2023/05/18 05:38:43;;;;;;;2.25;1.23;;;;;;;18.55;66.90;100421.25;5070077;28;20048;-62
2023/05/18 05:41:11;;;;;;;1.67;1.30;;;;;;;18.55;66.90;100423.09;5066889;28;20120;-62
2023/05/18 05:43:46;;;;;;;3.40;1.40;;;;;;;18.55;67.09;100433.91;5069623;28;20047;-62
2023/05/18 05:46:14;;;;;;;3.85;1.50;;;;;;;18.56;67.04;100430.19;5070827;28;20051;-62
2023/05/18 05:48:43;;;;;;;4.03;1.42;;;;;;;18.55;67.06;100432.03;5073722;28;20040;-62
2023/05/18 05:51:11;;;;;;;2.92;1.20;;;;;;;18.56;67.35;100432.91;5070773;28;20040;-62
2023/05/18 05:53:39;;;;;;;4.18;1.50;;;;;;;18.55;67.33;100437.44;5073533;28;20079;-63
2023/05/18 05:56:10;;;;;;;1.88;1.27;;;;;;;18.56;67.19;100438.31;5073599;28;20119;-62
2023/05/18 05:58:39;;;;;;;3.00;1.60;;;;;;;18.55;67.21;100445.56;5074048;28;20094;-62
2023/05/18 06:01:08;;;;;;;3.28;1.40;;;;;;;18.55;67.11;100439.28;5073300;28;20055;-62
2023/05/18 06:03:37;;;;;;;2.63;1.40;;;;;;;18.55;67.30;100440.16;5074463;28;20060;-62
2023/05/18 06:06:06;;;;;;;3.03;1.30;;;;;;;18.56;67.29;100443.69;5073901;28;20086;-62
2023/05/18 06:08:34;;;;;;;3.97;1.75;;;;;;;18.55;66.98;100448.25;5074619;28;20060;-62
2023/05/18 06:11:02;;;;;;;2.67;1.40;;;;;;;18.56;67.34;100447.25;5074231;28;20083;-62
2023/05/18 06:13:30;;;;;;;5.18;1.33;;;;;;;18.56;67.41;100457.22;5073882;28;20044;-62
2023/05/18 06:15:59;;;;;;;2.53;1.30;;;;;;;18.56;67.49;100449.09;5074502;28;20175;-62
2023/05/18 06:18:31;;;;;;;3.97;1.40;;;;;;;18.55;67.20;100458.19;5074229;28;20131;-63
2023/05/18 06:21:00;;;;;;;2.42;1.48;;;;;;;18.55;67.47;100450.94;5074572;28;20080;-61
2023/05/18 06:23:28;;;;;;;4.30;1.63;;;;;;;18.54;67.50;100457.34;5074167;28;20045;-63
2023/05/18 06:25:58;;;;;;;2.60;1.15;;;;;;;18.55;67.50;100460.91;5074236;28;20048;-63
2023/05/18 06:28:27;;;;;;;3.85;1.50;;;;;;;18.55;67.20;100460.91;5073005;28;20133;-63
2023/05/18 06:30:55;;;;;;;2.33;1.30;;;;;;;18.54;67.31;100462.75;5074334;28;20053;-63
2023/05/18 06:33:23;;;;;;;3.85;1.42;;;;;;;18.54;67.39;100464.59;5073464;28;20040;-64
2023/05/18 06:35:56;;;;;;;3.60;1.58;;;;;;;18.55;67.16;100466.31;5074075;28;20049;-63
2023/05/18 06:38:24;;;;;;;3.83;1.50;;;;;;;18.53;67.25;100466.44;5074145;28;20060;-63
2023/05/18 06:40:52;;;;;;;4.47;1.40;;;;;;;18.54;67.87;100472.72;5073917;28;20041;-63
2023/05/18 06:43:20;;;;;;;2.50;1.23;;;;;;;18.54;67.73;100472.72;5073668;28;20494;-63
2023/05/18 06:45:48;;;;;;;3.15;1.33;;;;;;;18.54;67.60;100481.66;5073933;28;20052;-62
2023/05/18 06:48:16;;;;;;;2.85;1.38;;;;;;;18.54;68.00;100486.22;5073730;28;20051;-63
2023/05/18 06:50:44;;;;;;;2.58;1.05;;;;;;;18.54;67.56;100476.25;5073478;28;20083;-63
2023/05/18 06:53:14;;;;;;;5.88;1.63;;;;;;;18.54;67.62;100486.22;5073237;28;20055;-63
2023/05/18 06:55:42;;;;;;;3.78;1.23;;;;;;;18.54;67.52;100491.63;5072986;28;20090;-63
2023/05/18 06:58:11;;;;;;;2.45;1.20;;;;;;;18.53;67.67;100489.91;5072951;28;20048;-63
2023/05/18 07:00:39;;;;;;;2.75;1.30;;;;;;;18.53;67.68;100489.91;5072418;28;20080;-63
2023/05/18 07:03:08;;;;;;;2.05;1.00;;;;;;;18.53;67.62;100495.31;5073586;28;20041;-63
2023/05/18 07:05:36;;;;;;;2.17;1.17;;;;;;;18.53;67.45;100487.22;5073220;28;20044;-63
2023/05/18 07:08:09;;;;;;;1.90;0.90;;;;;;;18.53;67.57;100495.31;5073291;28;20493;-63
2023/05/18 07:10:39;;;;;;;6.35;1.30;;;;;;;18.53;67.56;100501.56;5073155;28;20045;-63
2023/05/18 07:13:08;;;;;;;3.45;1.30;;;;;;;18.53;67.53;100498.88;5073096;28;20143;-63
2023/05/18 07:15:36;;;;;;;4.63;1.05;;;;;;;18.53;67.53;100498.00;5105678;28;20094;-63
2023/05/18 07:18:05;;;;;;;1.80;1.08;;;;;;;18.53;67.31;100506.97;5073370;28;20128;-63
2023/05/18 07:20:33;;;;;;;3.33;1.20;;;;;;;18.53;67.50;100501.56;5073261;28;20048;-63
2023/05/18 07:23:02;;;;;;;5.05;1.42;;;;;;;18.53;67.52;100506.13;5073329;28;20128;-63
2023/05/18 07:25:30;;;;;;;2.90;1.02;;;;;;;18.53;67.30;100503.41;5072946;28;20382;-63
2023/05/18 07:28:00;;;;;;;2.78;1.15;;;;;;;18.54;67.41;100511.38;5073256;28;20139;-63
2023/05/18 07:30:28;;;;;;;3.38;1.30;;;;;;;18.54;67.91;100516.78;5073259;28;20320;-62
2023/05/18 07:32:56;;;;;;;3.83;1.40;;;;;;;18.53;67.60;100511.53;5073193;28;20044;-62
2023/05/18 07:35:25;;;;;;;3.42;1.30;;;;;;;18.52;67.70;100507.94;5073066;28;20199;-62
2023/05/18 07:37:53;;;;;;;4.07;1.25;;;;;;;18.53;67.45;100519.63;5072688;28;20084;-62
2023/05/18 07:40:22;;;;;;;3.72;1.17;;;;;;;18.53;67.40;100519.63;5073088;28;20048;-62
2023/05/18 07:42:50;;;;;;;3.60;1.30;;;;;;;18.53;67.82;100522.31;5072929;28;20056;-62
2023/05/18 07:45:22;;;;;;;3.45;1.17;;;;;;;18.54;67.53;100532.13;5072859;28;20053;-62
2023/05/18 07:47:51;;;;;;;2.50;1.33;;;;;;;18.53;67.44;100523.19;5071621;28;20124;-62
2023/05/18 07:50:19;;;;;;;2.80;1.20;;;;;;;18.53;67.80;100528.56;5072605;28;20045;-62
2023/05/18 07:52:47;;;;;;;4.22;1.30;;;;;;;18.53;67.82;100533.13;5072509;28;20056;-62
2023/05/18 07:55:16;;;;;;;3.28;1.20;;;;;;;18.54;67.87;100524.88;5072890;28;20045;-62
2023/05/18 07:57:44;;;;;;;2.30;1.20;;;;;;;18.54;67.45;100534.84;5072530;28;20517;-62
2023/05/18 08:00:16;;;;;;;2.67;1.23;;;;;;;18.54;67.47;100524.88;5072630;28;20049;-62
2023/05/18 08:02:45;;;;;;;3.72;1.20;;;;;;;18.54;67.76;100530.28;5071331;28;20055;-62
2023/05/18 08:05:14;;;;;;;2.85;1.17;;;;;;;18.55;67.40;100531.13;5104598;28;20098;-62
2023/05/18 08:07:42;;;;;;;2.10;1.20;;;;;;;18.56;67.65;100540.94;5072227;28;20519;-62
2023/05/18 08:10:12;;;;;;;1.98;1.02;;;;;;;18.53;67.46;100533.97;5072350;28;20048;-62
2023/05/18 08:12:40;;;;;;;2.03;0.93;;;;;;;18.55;67.35;100536.53;5072213;28;20140;-62
2023/05/18 08:15:11;;;;;;;4.25;1.17;;;;;;;18.55;67.43;100542.78;5072342;28;20040;-62
2023/05/18 08:17:39;;;;;;;4.28;1.02;;;;;;;18.56;67.35;100540.94;5071854;28;20044;-62
2023/05/18 08:20:10;;;;;;;3.47;1.00;;;;;;;18.55;67.32;100541.94;5072165;28;20049;-62
2023/05/18 08:22:39;;;;;;;4.22;1.33;;;;;;;18.56;67.72;100544.50;5072116;28;20048;-62
2023/05/18 08:25:09;;;;;;;3.22;1.30;;;;;;;18.56;67.59;100551.75;5072062;28;20441;-63
2023/05/18 08:27:37;;;;;;;4.13;1.30;;;;;;;18.57;67.54;100551.63;5070712;28;20045;-62
2023/05/18 08:30:07;;;;;;;4.10;1.20;;;;;;;18.58;67.79;100547.06;5071922;28;20049;-63
2023/05/18 08:32:35;;;;;;;3.00;1.13;;;;;;;18.59;67.67;100551.47;5071008;28;20048;-63
2023/05/18 08:35:05;;;;;;;1.90;0.90;;;;;;;18.59;67.74;100543.38;5071929;28;20290;-63
2023/05/18 08:37:36;;;;;;;4.10;1.30;;;;;;;18.58;67.38;100547.91;5072158;28;20045;-63
2023/05/18 08:40:10;;;;;;;3.72;1.05;;;;;;;18.60;67.26;100547.78;5071727;28;20109;-62
2023/05/18 08:42:44;;;;;;;3.00;1.10;;;;;;;18.60;67.38;100545.06;5071715;28;20055;-62
2023/05/18 08:45:23;;;;;;;2.33;1.10;;;;;;;18.61;67.44;100552.19;5071716;28;20071;-62
2023/05/18 08:47:55;;;;;;;4.10;1.40;;;;;;;18.60;67.18;100548.63;5071832;28;20044;-62
2023/05/18 08:50:26;;;;;;;2.13;1.00;;;;;;;18.62;67.53;100551.19;5071643;28;20106;-62
2023/05/18 08:52:59;;;;;;;2.70;1.17;;;;;;;18.63;67.32;100549.38;5071674;28;20281;-62
2023/05/18 08:55:28;;;;;;;2.80;1.00;;;;;;;18.62;67.56;100551.19;5071389;28;20133;-62
2023/05/18 08:57:59;;;;;;;1.73;0.98;;;;;;;18.62;67.68;100545.78;5071454;28;20087;-63
2023/05/18 09:00:27;;;;;;;4.70;1.38;;;;;;;18.63;67.55;100544.81;5071576;28;20070;-63
2023/05/18 09:02:57;;;;;;;2.65;1.15;;;;;;;18.64;67.41;100551.94;5071959;28;20048;-63
2023/05/18 09:05:25;;;;;;;1.92;0.90;;;;;;;18.65;67.52;100552.81;5070370;28;20040;-63
2023/05/18 09:07:57;;;;;;;3.63;1.23;;;;;;;18.65;67.21;100548.28;5071359;28;20086;-63
2023/05/18 09:10:26;;;;;;;3.15;1.52;;;;;;;18.66;67.64;100543.72;5071634;28;20048;-63
2023/05/18 09:12:56;;;;;;;2.25;1.13;;;;;;;18.67;67.34;100545.41;5069704;28;20098;-63
2023/05/18 09:15:25;;;;;;;1.45;1.10;;;;;;;18.66;67.62;100539.16;5071416;28;20421;-63
2023/05/18 09:17:54;;;;;;;2.35;0.88;;;;;;;18.67;67.23;100543.56;5071569;28;20127;-63
2023/05/18 09:20:23;;;;;;;2.72;1.13;;;;;;;18.68;67.62;100542.59;5071223;28;20055;-63
2023/05/18 09:22:52;;;;;;;3.72;1.30;;;;;;;18.68;67.81;100541.72;5071375;28;20048;-63
2023/05/18 09:25:24;;;;;;;2.38;1.17;;;;;;;18.69;67.56;100541.59;5071457;28;20056;-63
2023/05/18 09:27:54;;;;;;;3.20;1.20;;;;;;;18.69;67.51;100541.59;5071154;28;20048;-63
2023/05/18 09:30:27;;;;;;;2.33;1.30;;;;;;;18.70;67.15;100546.00;5071162;28;20047;-63
2023/05/18 09:32:57;;;;;;;2.10;0.90;;;;;;;18.70;67.76;100543.28;5070838;28;20139;-63
2023/05/18 09:35:26;;;;;;;2.47;1.20;;;;;;;18.70;67.65;100548.69;5071301;28;20064;-63
2023/05/18 09:37:54;;;;;;;3.63;1.20;;;;;;;18.71;67.23;100545.00;5069811;28;20075;-63
2023/05/18 09:40:28;;;;;;;3.22;1.23;;;;;;;18.71;67.46;100553.09;5071111;28;20067;-63
2023/05/18 09:42:56;;;;;;;3.03;1.20;;;;;;;18.72;67.19;100552.13;5070944;28;20053;-63
2023/05/18 09:45:25;;;;;;;2.97;1.00;;;;;;;18.73;67.37;100556.56;5070752;28;20114;-63
2023/05/18 09:47:54;;;;;;;1.98;0.80;;;;;;;18.73;67.50;100556.56;5071076;28;20401;-63
2023/05/18 09:50:23;;;;;;;2.08;1.00;;;;;;;18.75;67.09;100553.69;5070851;28;20106;-62
2023/05/18 09:52:51;;;;;;;5.35;1.13;;;;;;;18.74;67.06;100550.16;5070868;28;20060;-63
2023/05/18 09:55:20;;;;;;;1.52;0.98;;;;;;;18.75;67.28;100559.09;5070716;28;20457;-62
2023/05/18 09:57:50;;;;;;;3.97;1.15;;;;;;;18.76;67.33;100561.66;5070545;28;20075;-62
2023/05/18 10:00:20;;;;;;;1.48;0.95;;;;;;;18.77;67.32;100546.31;5070590;28;20055;-62
2023/05/18 10:02:52;;;;;;;2.40;1.10;;;;;;;18.77;67.03;100560.66;5070781;28;20049;-63
2023/05/18 10:05:21;;;;;;;2.60;1.00;;;;;;;18.77;67.07;100547.16;5070913;28;20040;-62
2023/05/18 10:07:51;;;;;;;1.77;1.05;;;;;;;18.78;67.41;100554.28;5070571;28;20055;-62
2023/05/18 10:10:20;;;;;;;1.33;0.80;;;;;;;18.78;67.24;100548.88;5070623;28;20045;-62
2023/05/18 10:12:54;;;;;;;2.53;1.10;;;;;;;18.79;67.25;100558.69;5070360;28;20057;-62
2023/05/18 10:15:26;;;;;;;2.13;0.80;;;;;;;18.79;67.50;100558.69;5070674;28;20049;-62
2023/05/18 10:17:56;;;;;;;2.00;0.82;;;;;;;18.80;67.07;100552.28;5070741;28;20484;-62
2023/05/18 10:20:25;;;;;;;2.38;0.98;;;;;;;18.80;67.26;100552.28;5070661;28;20283;-62
2023/05/18 10:22:55;;;;;;;2.55;1.05;;;;;;;18.80;66.92;100552.28;5070476;28;20106;-62
2023/05/18 10:25:26;;;;;;;1.77;0.82;;;;;;;18.81;67.31;100553.13;5070498;28;20472;-62
2023/05/18 10:28:00;;;;;;;2.22;1.08;;;;;;;18.82;67.33;100552.16;5070680;28;20140;-62
2023/05/18 10:30:30;;;;;;;1.52;0.95;;;;;;;18.81;67.32;100551.28;5070667;28;20057;-62
2023/05/18 10:33:00;;;;;;;2.10;1.05;;;;;;;18.83;67.24;100551.16;5073317;28;20143;-62
2023/05/18 10:35:29;;;;;;;2.95;1.00;;;;;;;18.84;67.09;100552.88;5074002;28;20490;-62
2023/05/18 10:38:02;;;;;;;3.55;1.33;;;;;;;18.85;66.97;100554.59;5073635;28;20048;-62
2023/05/18 10:40:32;;;;;;;1.65;0.90;;;;;;;18.85;67.17;100558.13;5074013;28;20272;-62
2023/05/18 10:43:04;;;;;;;2.95;1.10;;;;;;;18.85;66.88;100555.44;5073796;28;20051;-62
2023/05/18 10:45:33;;;;;;;1.52;0.80;;;;;;;18.85;66.94;100566.25;5073789;28;20052;-62
2023/05/18 10:48:05;;;;;;;2.05;0.88;;;;;;;18.85;67.22;100560.84;5106355;28;20080;-63
2023/05/18 10:50:35;;;;;;;2.05;0.90;;;;;;;18.86;66.93;100557.16;5073893;28;20055;-62
2023/05/18 10:53:06;;;;;;;4.32;1.13;;;;;;;18.86;67.16;100557.16;5073899;28;20048;-63
2023/05/18 10:55:34;;;;;;;2.10;1.00;;;;;;;18.87;67.20;100556.16;5073718;28;20123;-63
2023/05/18 10:58:09;;;;;;;1.42;0.80;;;;;;;18.87;66.82;100553.44;5073698;28;20075;-62
2023/05/18 11:00:38;;;;;;;1.48;0.77;;;;;;;18.87;67.12;100556.16;5073645;28;20378;-62
2023/05/18 11:03:12;;;;;;;2.03;1.00;;;;;;;18.88;66.90;100560.56;5074158;28;20068;-62
2023/05/18 11:05:42;;;;;;;1.60;0.90;;;;;;;18.88;67.29;100559.72;5105893;28;20053;-62
2023/05/18 11:08:10;;;;;;;1.98;0.93;;;;;;;18.87;66.96;100558.84;5073592;28;20051;-61
2023/05/18 11:10:45;;;;;;;1.17;0.80;;;;;;;18.88;66.74;100560.56;5073687;28;20064;-62
2023/05/18 11:13:15;;;;;;;1.45;0.98;;;;;;;18.87;66.83;100558.84;5073276;28;20056;-62
2023/05/18 11:16:05;;;;;;;1.60;1.00;;;;;;;18.88;67.01;100571.38;5073444;28;20052;-62
2023/05/18 11:18:39;;;;;;;2.50;1.00;;;;;;;18.88;66.89;100565.97;5073089;28;20044;-61
2023/05/18 11:21:50;;;;;;;2.28;1.08;;;;;;;18.87;67.32;100569.66;5073105;28;20041;-62
2023/05/18 11:24:20;;;;;;;2.92;1.10;;;;;;;18.88;67.04;100565.97;5059826;28;20044;-61
2023/05/18 11:26:50;;;;;;;5.57;1.30;;;;;;;18.87;66.95;100572.38;5073072;28;20071;-62
2023/05/18 11:29:29;;;;;;;3.05;1.10;;;;;;;18.88;66.97;100575.91;5073361;28;20132;-62
2023/05/18 11:31:58;;;;;;;2.35;1.20;;;;;;;18.87;66.96;100575.06;5072752;28;20044;-62
2023/05/18 11:34:54;;;;;;;2.97;1.23;;;;;;;18.88;67.12;100576.78;5073300;28;20460;-62
2023/05/18 11:37:50;;;;;;;2.42;0.98;;;;;;;18.88;67.04;100581.31;5048760;28;20056;-62